Time;durP1;ratioP1;P1;durP2;ratioP2;P2;SDS_P1;SDS_P2;PMS_P1;PMS_P2;Temp;Humidity;BMP_temperature;BMP_pressure;BME280_temperature;BME280_humidity;BME280_pressure;Samples;Min_cycle;Max_cycle;Signal;HPM_P1;HPM_P2
2023/09/26 00:00:20;;;;;;;12.20;8.27;;;14.20;99.90;;;;;;5060385;28;20216;-58
2023/09/26 00:02:48;;;;;;;12.20;7.87;;;14.30;99.90;;;;;;5060539;28;20263;-59
2023/09/26 00:05:20;;;;;;;13.33;7.90;;;14.30;99.90;;;;;;5039528;28;20223;-59
2023/09/26 00:07:49;;;;;;;10.07;7.47;;;14.30;99.90;;;;;;5048252;28;20262;-58
2023/09/26 00:10:18;;;;;;;11.93;8.00;;;14.40;99.90;;;;;;5028190;28;20282;-59
2023/09/26 00:12:47;;;;;;;11.00;8.67;;;14.40;99.90;;;;;;5033100;28;20588;-58
2023/09/26 00:15:15;;;;;;;9.60;8.23;;;14.40;99.90;;;;;;5025888;28;20226;-59
2023/09/26 00:17:44;;;;;;;16.93;7.97;;;14.50;99.90;;;;;;5051139;28;20229;-58
2023/09/26 00:20:16;;;;;;;12.83;8.47;;;14.50;99.90;;;;;;5067814;28;20228;-59
2023/09/26 00:22:47;;;;;;;15.63;8.37;;;14.50;99.90;;;;;;5072329;28;20192;-59
2023/09/26 00:25:17;;;;;;;12.43;8.07;;;14.50;99.90;;;;;;5063822;28;20201;-58
2023/09/26 00:27:47;;;;;;;9.57;7.50;;;14.50;99.90;;;;;;5062764;28;20275;-59
2023/09/26 00:30:16;;;;;;;9.63;7.83;;;14.50;99.90;;;;;;5057038;28;20228;-59
2023/09/26 00:32:45;;;;;;;10.53;7.47;;;14.50;99.90;;;;;;5058304;28;21050;-59
2023/09/26 00:35:13;;;;;;;10.77;7.67;;;14.40;99.90;;;;;;5064181;28;20225;-59
2023/09/26 00:37:43;;;;;;;10.37;7.60;;;14.30;99.90;;;;;;5052490;28;20189;-59
2023/09/26 00:40:18;;;;;;;8.60;7.50;;;14.30;99.90;;;;;;5052008;28;20671;-58
2023/09/26 00:42:47;;;;;;;16.20;7.77;;;14.30;99.90;;;;;;5051367;28;20767;-59
2023/09/26 00:45:16;;;;;;;10.97;7.67;;;14.30;99.90;;;;;;5053265;28;20253;-58
2023/09/26 00:47:45;;;;;;;11.60;8.20;;;14.20;99.90;;;;;;5056323;28;20650;-59
2023/09/26 00:50:13;;;;;;;10.43;8.20;;;14.20;99.90;;;;;;5069258;28;20252;-58
2023/09/26 00:52:45;;;;;;;10.67;8.10;;;14.20;99.90;;;;;;5065977;28;20193;-59
2023/09/26 00:55:17;;;;;;;16.07;7.90;;;14.10;99.90;;;;;;5042943;28;20339;-58
2023/09/26 00:57:48;;;;;;;10.33;8.33;;;14.10;99.90;;;;;;5048671;28;20230;-58
2023/09/26 01:00:21;;;;;;;8.70;7.67;;;14.10;99.90;;;;;;5051345;28;20222;-58
2023/09/26 01:02:50;;;;;;;15.67;8.00;;;14.00;99.90;;;;;;5057275;28;20615;-59
2023/09/26 01:05:19;;;;;;;11.60;7.80;;;14.00;99.90;;;;;;5069392;28;20230;-58
2023/09/26 01:07:48;;;;;;;11.77;8.27;;;14.00;99.90;;;;;;5067372;28;20202;-59
2023/09/26 01:10:18;;;;;;;10.53;8.23;;;14.00;99.90;;;;;;5069452;28;20218;-58
2023/09/26 01:12:47;;;;;;;10.37;8.40;;;14.00;99.90;;;;;;5061807;28;20265;-58
2023/09/26 01:15:31;;;;;;;9.47;8.40;;;14.00;99.90;;;;;;5065330;28;20321;-58
2023/09/26 01:18:00;;;;;;;11.57;8.37;;;13.90;99.90;;;;;;5052354;28;20697;-58
2023/09/26 01:20:28;;;;;;;10.60;8.63;;;13.90;99.90;;;;;;5055983;28;20649;-58
2023/09/26 01:22:58;;;;;;;9.77;7.60;;;13.90;99.90;;;;;;5066737;28;20202;-58
2023/09/26 01:25:28;;;;;;;10.70;8.40;;;13.90;99.90;;;;;;5042225;28;20188;-58
2023/09/26 01:28:01;;;;;;;9.47;8.07;;;13.90;99.90;;;;;;5042984;28;20311;-58
2023/09/26 01:30:30;;;;;;;14.77;8.73;;;13.80;99.90;;;;;;5051933;28;20596;-58
2023/09/26 01:32:58;;;;;;;11.13;8.43;;;13.80;99.90;;;;;;5043961;28;20229;-58
2023/09/26 01:35:27;;;;;;;13.83;8.30;;;13.80;99.90;;;;;;5050094;28;20251;-58
2023/09/26 01:37:55;;;;;;;12.87;8.27;;;13.80;99.90;;;;;;5054434;28;20674;-58
2023/09/26 01:40:24;;;;;;;9.73;8.30;;;13.90;99.90;;;;;;5068603;28;20196;-58
2023/09/26 01:42:54;;;;;;;12.50;9.30;;;13.90;99.90;;;;;;5063712;28;20325;-58
2023/09/26 01:45:23;;;;;;;11.37;9.03;;;13.90;99.90;;;;;;5065294;28;20221;-58
2023/09/26 01:47:52;;;;;;;11.13;8.67;;;14.00;99.90;;;;;;5053273;28;20224;-59
2023/09/26 01:50:22;;;;;;;13.43;8.00;;;14.10;99.90;;;;;;5068813;28;20298;-58
2023/09/26 01:52:50;;;;;;;10.67;8.50;;;14.10;99.90;;;;;;5060741;28;20194;-58
2023/09/26 01:55:20;;;;;;;10.57;8.50;;;14.10;99.90;;;;;;5066868;28;20195;-58
2023/09/26 01:57:50;;;;;;;13.47;8.37;;;14.00;99.90;;;;;;5060525;28;20287;-58
2023/09/26 02:00:20;;;;;;;14.40;8.70;;;14.10;99.90;;;;;;5064661;28;20293;-58
2023/09/26 02:02:51;;;;;;;11.27;8.37;;;14.10;99.90;;;;;;5063842;28;20319;-59
2023/09/26 02:05:21;;;;;;;13.27;8.17;;;14.10;99.90;;;;;;5066849;28;20298;-58
2023/09/26 02:07:50;;;;;;;11.43;8.33;;;14.00;99.90;;;;;;5070504;28;20220;-58
2023/09/26 02:10:19;;;;;;;11.43;8.57;;;14.00;99.90;;;;;;5050824;28;20192;-59
2023/09/26 02:12:48;;;;;;;10.37;8.20;;;14.00;99.90;;;;;;5070684;28;20217;-58
2023/09/26 02:15:20;;;;;;;12.57;8.63;;;14.00;99.90;;;;;;5062281;28;20214;-59
2023/09/26 02:17:48;;;;;;;12.80;7.57;;;14.00;99.90;;;;;;5062835;28;20225;-58
2023/09/26 02:20:18;;;;;;;10.03;8.03;;;14.00;99.90;;;;;;5070761;28;20299;-59
2023/09/26 02:22:48;;;;;;;9.67;8.23;;;14.00;99.90;;;;;;5061671;28;20205;-59
2023/09/26 02:25:18;;;;;;;10.67;8.73;;;14.00;99.90;;;;;;5066958;28;20236;-58
2023/09/26 02:27:48;;;;;;;12.23;8.40;;;14.00;99.90;;;;;;5064012;28;20322;-59
2023/09/26 02:30:19;;;;;;;12.83;8.10;;;13.90;99.90;;;;;;5066097;28;20241;-59
2023/09/26 02:32:48;;;;;;;9.87;7.30;;;13.90;99.90;;;;;;5060802;28;20216;-59
2023/09/26 02:35:19;;;;;;;13.07;7.70;;;13.90;99.90;;;;;;5049328;28;20228;-58
2023/09/26 02:37:48;;;;;;;11.43;7.67;;;13.90;99.90;;;;;;5061695;28;20192;-59
2023/09/26 02:40:16;;;;;;;9.07;7.33;;;13.90;99.90;;;;;;5047601;28;20196;-59
2023/09/26 02:42:45;;;;;;;8.60;7.37;;;13.90;99.90;;;;;;5060276;28;20232;-59
2023/09/26 02:45:14;;;;;;;12.10;8.20;;;13.80;99.90;;;;;;5066913;28;20212;-59
2023/09/26 02:47:45;;;;;;;11.03;7.33;;;13.80;99.90;;;;;;5066601;28;20323;-59
2023/09/26 02:50:14;;;;;;;13.03;7.97;;;13.80;99.90;;;;;;5060808;28;20347;-58
2023/09/26 02:52:44;;;;;;;8.70;7.80;;;13.70;99.90;;;;;;5049460;28;20186;-59
2023/09/26 02:55:12;;;;;;;12.80;7.83;;;13.70;99.90;;;;;;5069215;28;20227;-58
2023/09/26 02:57:41;;;;;;;9.93;7.70;;;13.70;99.90;;;;;;5046297;28;20305;-59
2023/09/26 03:00:16;;;;;;;11.53;8.33;;;13.60;99.90;;;;;;5040010;28;20689;-59
2023/09/26 03:02:47;;;;;;;10.87;7.87;;;13.60;99.90;;;;;;5045333;28;20240;-59
2023/09/26 03:05:17;;;;;;;13.47;8.00;;;13.60;99.90;;;;;;5037779;28;20249;-59
2023/09/26 03:07:46;;;;;;;10.83;7.97;;;13.60;99.90;;;;;;5042986;28;20202;-59
2023/09/26 03:10:15;;;;;;;10.17;7.90;;;13.60;99.90;;;;;;5046867;28;20599;-58
2023/09/26 03:12:48;;;;;;;14.10;7.73;;;13.60;99.90;;;;;;5064586;28;20216;-59
2023/09/26 03:15:17;;;;;;;9.73;7.57;;;13.70;99.90;;;;;;5066680;28;20774;-58
2023/09/26 03:17:47;;;;;;;15.07;8.10;;;13.80;99.90;;;;;;5064071;28;20584;-59
2023/09/26 03:20:16;;;;;;;13.73;8.43;;;13.80;99.90;;;;;;5069307;28;20694;-58
2023/09/26 03:22:45;;;;;;;10.20;8.00;;;13.80;99.90;;;;;;5067617;28;20567;-58
2023/09/26 03:25:14;;;;;;;10.67;8.13;;;13.70;99.90;;;;;;5063166;28;20274;-58
2023/09/26 03:27:43;;;;;;;10.43;7.77;;;13.70;99.90;;;;;;5062775;28;20592;-58
2023/09/26 03:30:15;;;;;;;9.03;7.63;;;13.70;99.90;;;;;;5069092;28;20226;-58
2023/09/26 03:32:43;;;;;;;10.20;7.23;;;13.70;99.90;;;;;;5065230;28;20229;-58
2023/09/26 03:35:13;;;;;;;9.10;7.47;;;13.60;99.90;;;;;;5065217;28;20756;-59
2023/09/26 03:37:41;;;;;;;13.57;8.10;;;13.70;99.90;;;;;;5066052;28;20200;-58
2023/09/26 03:40:11;;;;;;;9.73;7.80;;;13.70;99.90;;;;;;5044448;28;20228;-59
2023/09/26 03:42:40;;;;;;;11.80;7.60;;;13.70;99.90;;;;;;5040781;28;20699;-59
2023/09/26 03:45:09;;;;;;;13.60;7.40;;;13.60;99.90;;;;;;5057654;28;20217;-58
2023/09/26 03:47:37;;;;;;;9.53;7.00;;;13.70;99.90;;;;;;5057494;28;20236;-59
2023/09/26 03:50:07;;;;;;;11.13;7.53;;;13.60;99.90;;;;;;5049435;28;20216;-59
2023/09/26 03:52:37;;;;;;;11.80;7.47;;;13.60;99.90;;;;;;5041381;28;20193;-58
2023/09/26 03:55:06;;;;;;;12.03;7.50;;;13.60;99.90;;;;;;5049085;28;20225;-58
2023/09/26 03:57:35;;;;;;;10.30;7.50;;;13.60;99.90;;;;;;5050842;28;20226;-58
2023/09/26 04:00:12;;;;;;;11.77;7.30;;;13.50;99.90;;;;;;5060082;28;20225;-59
2023/09/26 04:02:41;;;;;;;10.80;7.17;;;13.50;99.90;;;;;;5067054;28;20236;-58
2023/09/26 04:05:10;;;;;;;10.70;7.50;;;13.50;99.90;;;;;;5064242;28;20571;-58
2023/09/26 04:07:40;;;;;;;12.13;7.30;;;13.40;99.90;;;;;;5062987;28;20206;-59
2023/09/26 04:10:09;;;;;;;10.30;7.87;;;13.40;99.90;;;;;;5066174;28;20304;-59
2023/09/26 04:12:38;;;;;;;15.47;7.53;;;13.30;99.90;;;;;;5060238;28;20231;-59
2023/09/26 04:15:07;;;;;;;10.50;7.60;;;13.30;99.90;;;;;;5068944;28;20664;-59
2023/09/26 04:17:36;;;;;;;11.27;7.27;;;13.30;99.90;;;;;;5055168;28;20264;-58
2023/09/26 04:20:07;;;;;;;11.93;7.60;;;13.30;99.90;;;;;;5055003;28;20257;-59
2023/09/26 04:22:41;;;;;;;9.83;7.40;;;13.30;99.90;;;;;;5064932;28;20219;-58
2023/09/26 04:25:10;;;;;;;10.00;7.77;;;13.30;99.90;;;;;;5066022;28;20223;-59
2023/09/26 04:27:38;;;;;;;14.47;8.03;;;13.40;99.90;;;;;;5063225;28;20275;-59
2023/09/26 04:30:09;;;;;;;13.77;7.80;;;13.50;99.90;;;;;;5067473;28;20294;-58
2023/09/26 04:32:38;;;;;;;11.00;7.67;;;13.50;99.90;;;;;;5059885;28;20230;-58
2023/09/26 04:35:07;;;;;;;11.83;7.53;;;13.50;99.90;;;;;;5069090;28;20195;-58
2023/09/26 04:37:36;;;;;;;16.03;8.03;;;13.50;99.90;;;;;;5068087;28;20199;-59
2023/09/26 04:40:09;;;;;;;13.03;8.53;;;13.50;99.90;;;;;;5067409;28;20662;-58
2023/09/26 04:42:41;;;;;;;12.80;7.77;;;13.50;99.90;;;;;;5063038;28;20253;-59
2023/09/26 04:45:10;;;;;;;10.87;7.57;;;13.50;99.90;;;;;;5069727;28;20590;-58
2023/09/26 04:47:39;;;;;;;11.43;7.60;;;13.50;99.90;;;;;;5066119;28;20266;-58
2023/09/26 04:50:09;;;;;;;11.20;7.40;;;13.50;99.90;;;;;;5072504;28;20355;-59
2023/09/26 04:52:38;;;;;;;11.67;8.10;;;13.40;99.90;;;;;;5071564;28;20198;-58
2023/09/26 04:55:09;;;;;;;9.43;7.17;;;13.40;99.90;;;;;;5070283;28;20232;-59
2023/09/26 04:57:37;;;;;;;8.97;7.00;;;13.40;99.90;;;;;;5068925;28;20225;-59
2023/09/26 05:00:09;;;;;;;11.23;6.93;;;13.30;99.90;;;;;;5071350;28;20231;-59
2023/09/26 05:02:38;;;;;;;14.83;7.17;;;13.30;99.90;;;;;;5069849;28;20691;-58
2023/09/26 05:05:07;;;;;;;7.47;6.63;;;13.30;99.90;;;;;;5072962;28;20204;-58
2023/09/26 05:07:35;;;;;;;16.43;7.60;;;13.30;99.90;;;;;;5072318;28;20661;-59
2023/09/26 05:10:05;;;;;;;13.40;7.57;;;13.30;99.90;;;;;;5048902;28;20220;-59
2023/09/26 05:12:37;;;;;;;8.87;6.47;;;13.40;99.90;;;;;;5047975;28;20220;-58
2023/09/26 05:15:06;;;;;;;8.77;6.47;;;13.40;99.90;;;;;;5048959;28;20240;-58
2023/09/26 05:17:35;;;;;;;11.50;6.83;;;13.40;99.90;;;;;;5049650;28;20242;-58
2023/09/26 05:20:07;;;;;;;7.97;6.33;;;13.40;99.90;;;;;;5042508;28;20229;-59
2023/09/26 05:22:35;;;;;;;12.37;6.93;;;13.40;99.90;;;;;;5046094;28;20657;-58
2023/09/26 05:25:05;;;;;;;12.03;6.47;;;13.40;99.90;;;;;;5050123;28;20222;-59
2023/09/26 05:27:34;;;;;;;7.00;6.13;;;13.40;99.90;;;;;;5050524;28;20221;-59
2023/09/26 05:30:03;;;;;;;7.10;6.40;;;13.30;99.90;;;;;;5052258;28;20220;-58
2023/09/26 05:32:32;;;;;;;7.17;5.97;;;13.30;99.90;;;;;;5051446;28;20304;-58
2023/09/26 05:35:01;;;;;;;7.83;6.40;;;13.30;99.90;;;;;;5042861;28;20192;-59
2023/09/26 05:37:29;;;;;;;11.20;6.57;;;13.20;99.90;;;;;;5072681;28;20254;-59
2023/09/26 05:39:58;;;;;;;12.37;7.07;;;13.20;99.90;;;;;;5066264;28;20228;-58
2023/09/26 05:42:26;;;;;;;11.60;6.77;;;13.20;99.90;;;;;;5072503;28;20765;-58
2023/09/26 05:44:56;;;;;;;8.37;6.57;;;13.20;99.90;;;;;;5061754;28;20235;-58
2023/09/26 05:47:25;;;;;;;8.70;6.40;;;13.20;99.90;;;;;;5059804;28;20232;-58
2023/09/26 05:49:53;;;;;;;10.03;6.67;;;13.10;99.90;;;;;;5069458;28;20250;-57
2023/09/26 05:52:22;;;;;;;9.73;6.70;;;13.10;99.90;;;;;;5072234;28;20247;-59
2023/09/26 05:54:50;;;;;;;15.73;6.90;;;13.10;99.90;;;;;;5070933;28;20216;-58
2023/09/26 05:57:19;;;;;;;9.83;6.90;;;13.10;99.90;;;;;;5058143;28;20417;-58
2023/09/26 05:59:48;;;;;;;8.60;6.50;;;13.10;99.90;;;;;;5060694;28;20312;-58
2023/09/26 06:02:18;;;;;;;11.23;6.53;;;13.10;99.90;;;;;;5071476;28;20216;-58
2023/09/26 06:04:47;;;;;;;7.90;6.00;;;13.10;99.90;;;;;;5065710;28;20193;-58
2023/09/26 06:07:15;;;;;;;7.87;6.47;;;13.00;99.90;;;;;;5065091;28;20213;-58
2023/09/26 06:09:44;;;;;;;8.63;6.43;;;13.10;99.90;;;;;;5045793;28;20279;-59
2023/09/26 06:12:28;;;;;;;10.37;6.57;;;13.10;99.90;;;;;;5060464;28;20220;-58
2023/09/26 06:14:57;;;;;;;9.33;6.33;;;13.10;99.90;;;;;;5068562;28;20267;-58
2023/09/26 06:17:27;;;;;;;10.53;6.33;;;13.10;99.90;;;;;;5066222;28;20772;-58
2023/09/26 06:19:56;;;;;;;9.67;6.47;;;13.10;99.90;;;;;;5045537;28;20304;-58
2023/09/26 06:22:25;;;;;;;8.97;6.40;;;13.10;99.90;;;;;;5042644;28;20322;-58
2023/09/26 06:24:54;;;;;;;10.53;6.60;;;13.00;99.90;;;;;;5049888;28;20721;-58
2023/09/26 06:27:22;;;;;;;14.60;6.83;;;13.00;99.90;;;;;;5045689;28;20217;-58
2023/09/26 06:29:51;;;;;;;10.27;6.37;;;13.10;99.90;;;;;;5054562;28;20232;-58
2023/09/26 06:32:19;;;;;;;9.70;5.83;;;13.10;99.90;;;;;;5062640;28;20231;-58
2023/09/26 06:34:49;;;;;;;12.87;6.07;;;13.10;99.90;;;;;;5069416;28;20647;-57
2023/09/26 06:37:20;;;;;;;14.17;6.73;;;13.20;99.90;;;;;;5066811;28;20185;-58
2023/09/26 06:39:49;;;;;;;15.30;7.30;;;13.30;99.90;;;;;;5068602;28;20841;-58
2023/09/26 06:42:17;;;;;;;11.83;6.63;;;13.40;99.90;;;;;;5068226;28;20227;-59
2023/09/26 06:44:45;;;;;;;8.30;6.27;;;13.50;99.90;;;;;;5069700;28;20585;-58
2023/09/26 06:47:14;;;;;;;9.43;6.63;;;13.60;99.90;;;;;;5067689;28;20228;-59
2023/09/26 06:49:42;;;;;;;10.37;6.90;;;13.70;99.90;;;;;;5066529;28;20647;-58
2023/09/26 06:52:12;;;;;;;12.70;7.37;;;13.90;99.90;;;;;;5066147;28;20551;-58
2023/09/26 06:54:41;;;;;;;12.70;6.77;;;14.10;99.90;;;;;;5065918;28;20224;-58
2023/09/26 06:57:09;;;;;;;15.63;7.50;;;14.30;99.90;;;;;;5083007;28;20745;-58
2023/09/26 06:59:38;;;;;;;15.47;6.93;;;14.40;99.90;;;;;;5068300;28;20314;-58
2023/09/26 07:02:08;;;;;;;9.80;6.43;;;14.60;99.90;;;;;;5061715;28;20184;-58
2023/09/26 07:04:37;;;;;;;24.37;6.87;;;14.80;99.90;;;;;;5062788;28;20229;-58
2023/09/26 07:07:05;;;;;;;18.90;6.37;;;15.10;99.90;;;;;;5064055;28;20331;-59
2023/09/26 07:09:35;;;;;;;14.27;6.03;;;15.30;99.90;;;;;;5063056;28;20228;-59
2023/09/26 07:12:04;;;;;;;15.73;6.57;;;15.50;99.90;;;;;;5060081;28;20266;-59
2023/09/26 07:14:39;;;;;;;14.50;7.03;;;15.60;99.90;;;;;;5056206;28;20220;-59
2023/09/26 07:17:10;;;;;;;11.90;6.47;;;15.70;99.90;;;;;;5037793;28;20241;-59
2023/09/26 07:19:41;;;;;;;10.90;6.73;;;15.80;99.90;;;;;;5060499;28;20191;-59
2023/09/26 07:22:10;;;;;;;11.53;5.63;;;15.90;99.90;;;;;;5039055;28;20225;-59
2023/09/26 07:24:40;;;;;;;9.37;6.17;;;15.90;99.90;;;;;;5042166;28;20649;-60
2023/09/26 07:27:17;;;;;;;14.73;6.73;;;15.90;99.90;;;;;;5044553;28;20265;-59
2023/09/26 07:29:47;;;;;;;15.73;6.53;;;15.90;99.90;;;;;;5047262;28;20226;-60
2023/09/26 07:32:16;;;;;;;13.40;6.27;;;15.90;99.90;;;;;;5047583;28;20225;-60
2023/09/26 07:34:45;;;;;;;15.50;7.03;;;15.80;99.90;;;;;;5042654;28;20608;-59
2023/09/26 07:37:13;;;;;;;12.57;6.33;;;15.80;99.90;;;;;;5063919;28;20222;-59
2023/09/26 07:39:46;;;;;;;15.07;6.53;;;15.90;99.90;;;;;;5065469;28;20295;-60
2023/09/26 07:42:15;;;;;;;16.17;6.37;;;15.90;99.90;;;;;;5066520;28;20314;-59
2023/09/26 07:44:43;;;;;;;11.23;6.33;;;16.00;99.90;;;;;;5066805;28;20273;-60
2023/09/26 07:47:12;;;;;;;18.27;7.03;;;16.10;99.90;;;;;;5066217;28;20313;-59
2023/09/26 07:49:41;;;;;;;14.33;6.97;;;16.00;99.90;;;;;;5067329;28;20594;-60
2023/09/26 07:52:09;;;;;;;12.80;6.43;;;16.10;99.90;;;;;;5060655;28;20224;-59
2023/09/26 07:54:38;;;;;;;13.23;6.20;;;16.10;99.90;;;;;;5063695;28;20222;-59
2023/09/26 07:57:08;;;;;;;17.00;7.03;;;16.30;99.90;;;;;;5065047;28;20230;-59
2023/09/26 07:59:38;;;;;;;10.40;6.60;;;16.30;99.90;;;;;;5062715;28;20719;-60
2023/09/26 08:02:06;;;;;;;14.30;7.38;;;16.40;99.90;;;;;;5059073;28;20463;-59
2023/09/26 08:04:35;;;;;;;11.53;6.93;;;16.50;99.90;;;;;;5060222;28;20243;-60
2023/09/26 08:07:04;;;;;;;13.90;6.77;;;16.50;99.90;;;;;;5064800;28;20258;-59
2023/09/26 08:09:33;;;;;;;13.43;6.70;;;16.60;99.90;;;;;;5065651;28;20229;-60
2023/09/26 08:12:01;;;;;;;14.50;6.73;;;16.70;99.90;;;;;;5055368;28;20250;-59
2023/09/26 08:14:31;;;;;;;14.37;6.63;;;16.70;99.90;;;;;;5051333;28;20228;-60
2023/09/26 08:17:00;;;;;;;12.87;6.10;;;16.80;99.90;;;;;;5067063;28;20258;-59
2023/09/26 08:19:28;;;;;;;13.87;5.90;;;16.80;99.90;;;;;;5049313;28;20596;-60
2023/09/26 08:21:57;;;;;;;9.97;6.20;;;16.90;99.90;;;;;;5050543;28;20632;-60
2023/09/26 08:24:25;;;;;;;12.30;6.00;;;16.90;99.90;;;;;;5048505;28;20213;-60
2023/09/26 08:26:54;;;;;;;11.47;6.27;;;16.90;99.90;;;;;;5046307;28;20580;-60
2023/09/26 08:29:22;;;;;;;11.17;6.07;;;17.00;99.90;;;;;;5045549;28;20263;-59
2023/09/26 08:31:52;;;;;;;11.30;5.93;;;17.00;99.90;;;;;;5048962;28;20226;-59
2023/09/26 08:34:21;;;;;;;12.70;5.97;;;17.10;99.90;;;;;;5044068;28;20200;-60
2023/09/26 08:36:50;;;;;;;14.37;6.37;;;17.20;99.90;;;;;;5044487;28;20363;-60
2023/09/26 08:39:18;;;;;;;18.33;6.07;;;17.40;99.90;;;;;;5045622;28;20221;-60
2023/09/26 08:41:47;;;;;;;12.30;5.90;;;17.50;99.90;;;;;;5049264;28;20228;-59
2023/09/26 08:44:19;;;;;;;11.27;6.23;;;17.50;99.90;;;;;;5046894;28;20302;-60
2023/09/26 08:46:47;;;;;;;14.87;6.80;;;17.60;99.90;;;;;;5045103;28;20194;-60
2023/09/26 08:49:17;;;;;;;11.53;6.23;;;17.70;99.90;;;;;;5071077;28;20213;-60
2023/09/26 08:51:46;;;;;;;10.50;5.40;;;17.80;99.90;;;;;;5044869;28;20262;-59
2023/09/26 08:54:14;;;;;;;10.60;5.57;;;17.90;99.90;;;;;;5046444;28;20714;-59
2023/09/26 08:56:45;;;;;;;12.33;5.80;;;17.90;99.90;;;;;;5026946;28;20235;-59
2023/09/26 08:59:15;;;;;;;10.93;5.07;;;18.10;99.90;;;;;;5049830;28;20228;-59
2023/09/26 09:01:43;;;;;;;12.17;5.63;;;18.20;99.90;;;;;;5066469;28;20555;-59
2023/09/26 09:04:12;;;;;;;15.17;5.70;;;18.30;99.90;;;;;;5067889;28;20227;-59
2023/09/26 09:06:42;;;;;;;11.77;5.13;;;18.50;99.90;;;;;;5066324;28;20227;-59
2023/09/26 09:09:13;;;;;;;10.33;5.73;;;18.60;99.90;;;;;;5066175;28;20226;-59
2023/09/26 09:11:41;;;;;;;10.33;5.10;;;18.70;99.90;;;;;;5065271;28;20559;-59
2023/09/26 09:14:10;;;;;;;11.27;4.90;;;18.70;99.90;;;;;;5067252;28;20247;-59
2023/09/26 09:16:38;;;;;;;10.77;5.37;;;19.00;99.90;;;;;;5065942;28;20195;-59
2023/09/26 09:19:07;;;;;;;11.33;5.10;;;19.10;99.90;;;;;;5064610;28;20243;-59
2023/09/26 09:21:35;;;;;;;9.80;5.10;;;19.10;99.90;;;;;;5063378;28;20224;-59
2023/09/26 09:24:07;;;;;;;11.03;5.20;;;19.10;99.90;;;;;;5053388;28;20228;-59
2023/09/26 09:26:37;;;;;;;10.17;5.27;;;19.00;99.90;;;;;;5047385;28;20228;-59
2023/09/26 09:29:19;;;;;;;11.57;5.23;;;19.10;99.90;;;;;;5040285;28;20266;-59
2023/09/26 09:31:48;;;;;;;17.27;5.30;;;19.10;99.90;;;;;;5046935;28;21616;-59
2023/09/26 09:34:17;;;;;;;8.17;4.63;;;19.10;99.90;;;;;;5048298;28;20663;-59
2023/09/26 09:36:45;;;;;;;9.10;4.80;;;19.10;99.90;;;;;;5048353;28;20713;-58
2023/09/26 09:39:19;;;;;;;9.03;4.80;;;19.10;99.90;;;;;;5042491;28;20224;-59
2023/09/26 09:41:49;;;;;;;9.53;4.30;;;19.10;99.90;;;;;;5039842;28;20747;-59
2023/09/26 09:44:17;;;;;;;8.00;4.23;;;19.20;99.90;;;;;;5046427;28;20702;-58
2023/09/26 09:46:48;;;;;;;11.57;4.97;;;19.30;99.90;;;;;;5048354;28;20303;-59
2023/09/26 09:49:23;;;;;;;7.83;4.30;;;19.30;99.90;;;;;;5065783;28;20220;-58
2023/09/26 09:51:56;;;;;;;7.67;4.63;;;19.40;99.90;;;;;;5062255;28;20294;-59
2023/09/26 09:54:37;;;;;;;11.53;4.43;;;19.60;99.90;;;;;;5066438;28;20230;-58
2023/09/26 09:57:34;;;;;;;8.00;4.83;;;19.70;99.90;;;;;;5060206;28;20393;-59
2023/09/26 10:00:07;;;;;;;6.43;4.50;;;19.50;99.90;;;;;;5062827;28;20309;-59
2023/09/26 10:02:37;;;;;;;10.37;4.40;;;19.60;99.90;;;;;;5058367;28;20225;-59
2023/09/26 10:05:12;;;;;;;7.77;4.60;;;19.70;99.90;;;;;;5069177;28;20215;-59
2023/09/26 10:07:43;;;;;;;6.53;4.30;;;19.80;99.90;;;;;;5062673;28;20543;-59
2023/09/26 10:10:15;;;;;;;6.77;4.07;;;19.90;99.90;;;;;;5048060;28;20231;-59
2023/09/26 10:12:47;;;;;;;6.53;3.97;;;19.90;99.90;;;;;;5063016;28;20228;-59
2023/09/26 10:16:06;;;;;;;11.10;4.00;;;20.00;99.90;;;;;;5062198;28;20733;-59
2023/09/26 10:18:38;;;;;;;8.73;4.13;;;20.10;99.90;;;;;;5064616;28;20227;-58
2023/09/26 10:21:23;;;;;;;6.60;3.90;;;20.20;99.90;;;;;;5063588;28;20232;-59
2023/09/26 10:24:25;;;;;;;8.53;3.67;;;20.40;99.90;;;;;;5067403;28;20227;-58
2023/09/26 10:26:58;;;;;;;4.17;3.50;;;20.70;99.90;;;;;;5076543;28;20331;-58
2023/09/26 10:29:38;;;;;;;5.33;3.40;;;20.90;99.90;;;;;;5064745;28;20289;-58
2023/09/26 10:32:10;;;;;;;5.63;3.47;;;21.00;99.90;;;;;;5065011;28;20239;-58
2023/09/26 10:34:39;;;;;;;4.57;3.43;;;21.10;99.90;;;;;;5069554;28;20579;-58
2023/09/26 10:37:28;;;;;;;3.53;3.17;;;21.30;99.90;;;;;;5061902;28;20207;-58
2023/09/26 10:39:56;;;;;;;6.80;3.23;;;21.40;99.90;;;;;;5066796;28;20599;-58
2023/09/26 10:42:26;;;;;;;4.80;3.10;;;21.50;99.90;;;;;;5070431;28;20236;-58
2023/09/26 10:44:58;;;;;;;4.23;3.10;;;21.70;99.90;;;;;;5071240;28;20220;-58
2023/09/26 10:47:26;;;;;;;4.07;2.80;;;21.80;99.90;;;;;;5068996;28;20324;-59
2023/09/26 10:49:55;;;;;;;5.87;3.10;;;21.80;99.90;;;;;;5062352;28;20224;-59
2023/09/26 10:52:47;;;;;;;4.63;3.00;;;21.80;99.90;;;;;;5068341;28;20278;-59
2023/09/26 10:55:17;;;;;;;3.00;2.80;;;22.10;99.90;;;;;;5059444;28;20549;-61
2023/09/26 10:57:51;;;;;;;7.90;2.80;;;22.30;99.90;;;;;;5059053;28;20736;-62
2023/09/26 11:00:20;;;;;;;3.03;2.73;;;22.50;99.90;;;;;;5057994;28;20217;-61
2023/09/26 11:02:48;;;;;;;3.43;2.90;;;22.40;99.90;;;;;;5063462;28;20221;-60
2023/09/26 11:05:18;;;;;;;12.23;2.83;;;22.40;99.90;;;;;;5060030;28;20306;-60
2023/09/26 11:07:47;;;;;;;5.73;2.70;;;22.60;99.90;;;;;;5040198;28;20234;-60
2023/09/26 11:10:16;;;;;;;5.27;2.67;;;22.80;99.90;;;;;;5065697;28;20196;-59
2023/09/26 11:12:45;;;;;;;3.60;2.80;;;23.00;99.90;;;;;;5063986;28;20195;-60
2023/09/26 11:15:16;;;;;;;2.93;2.60;;;23.00;99.90;;;;;;5063467;28;20232;-60
2023/09/26 11:17:50;;;;;;;2.57;2.37;;;23.20;99.90;;;;;;5060238;28;20236;-60
2023/09/26 11:20:19;;;;;;;3.50;2.50;;;23.20;99.90;;;;;;5045948;28;20208;-60
2023/09/26 11:22:49;;;;;;;4.17;2.60;;;23.50;99.90;;;;;;5059675;28;20305;-60
2023/09/26 11:25:17;;;;;;;4.50;2.70;;;23.60;99.90;;;;;;5059762;28;20211;-60
2023/09/26 11:27:48;;;;;;;2.83;2.63;;;23.80;99.90;;;;;;5062291;28;20202;-61
2023/09/26 11:30:20;;;;;;;2.80;2.60;;;23.70;99.90;;;;;;5057986;28;20980;-60
2023/09/26 11:32:51;;;;;;;3.93;2.80;;;23.80;99.90;;;;;;5061435;28;20621;-60
2023/09/26 11:35:21;;;;;;;2.47;2.27;;;23.70;99.90;;;;;;5057489;28;20212;-60
2023/09/26 11:37:49;;;;;;;2.73;2.40;;;23.70;99.90;;;;;;5053860;28;20228;-59
2023/09/26 11:40:22;;;;;;;2.83;2.57;;;23.90;99.90;;;;;;5039588;28;20194;-59
2023/09/26 11:42:55;;;;;;;3.90;2.67;;;24.00;99.90;;;;;;5062599;28;20239;-62
2023/09/26 11:45:27;;;;;;;2.73;2.50;;;24.00;99.90;;;;;;5046471;28;20311;-64
2023/09/26 11:47:56;;;;;;;6.37;2.90;;;24.00;99.90;;;;;;5026715;28;20785;-59
2023/09/26 11:50:28;;;;;;;3.00;2.80;;;24.10;99.90;;;;;;5049592;28;20224;-62
2023/09/26 11:52:57;;;;;;;3.37;3.07;;;24.10;99.90;;;;;;5048853;28;21020;-58
2023/09/26 11:55:26;;;;;;;3.10;2.60;;;23.90;99.90;;;;;;5069837;28;20713;-59
2023/09/26 11:57:55;;;;;;;3.40;2.93;;;23.90;99.90;;;;;;5053304;28;20583;-59
2023/09/26 12:00:26;;;;;;;3.00;2.73;;;24.10;99.90;;;;;;5053082;28;20224;-59
2023/09/26 12:02:55;;;;;;;3.77;2.40;;;24.20;99.90;;;;;;5062287;28;20299;-59
2023/09/26 12:05:23;;;;;;;11.40;2.90;;;24.40;99.90;;;;;;5068934;28;20662;-59
2023/09/26 12:07:52;;;;;;;3.60;3.30;;;24.80;99.90;;;;;;5066679;28;20223;-59
2023/09/26 12:10:23;;;;;;;4.53;3.10;;;25.00;99.90;;;;;;5050191;28;20246;-59
2023/09/26 12:12:53;;;;;;;2.90;2.70;;;25.10;99.90;;;;;;5051008;28;20755;-59
2023/09/26 12:15:23;;;;;;;4.30;2.50;;;25.20;99.90;;;;;;5068589;28;20220;-59
2023/09/26 12:17:54;;;;;;;3.17;2.80;;;25.20;99.90;;;;;;5070792;28;20242;-59
2023/09/26 12:20:24;;;;;;;4.93;2.50;;;25.30;99.90;;;;;;5065891;28;20232;-59
2023/09/26 12:22:55;;;;;;;2.57;2.37;;;25.20;99.90;;;;;;5069483;28;20224;-59
2023/09/26 12:25:25;;;;;;;2.60;2.50;;;25.20;99.90;;;;;;5071841;28;20355;-59
2023/09/26 12:27:54;;;;;;;2.30;2.20;;;25.20;99.90;;;;;;5053349;28;20204;-59
2023/09/26 12:30:22;;;;;;;2.40;1.97;;;25.30;99.90;;;;;;5070369;28;20216;-59
2023/09/26 12:32:52;;;;;;;2.80;2.60;;;25.30;99.90;;;;;;5053643;28;20221;-59
2023/09/26 12:35:21;;;;;;;2.20;2.07;;;25.50;99.90;;;;;;5050426;28;20302;-59
2023/09/26 12:37:49;;;;;;;5.43;2.00;;;25.40;99.90;;;;;;5049594;28;20230;-59
2023/09/26 12:40:18;;;;;;;2.03;1.93;;;25.30;99.90;;;;;;5068041;28;20193;-59
2023/09/26 12:42:46;;;;;;;2.77;2.37;;;25.50;99.90;;;;;;5066431;28;20193;-59
2023/09/26 12:45:14;;;;;;;2.13;2.00;;;25.50;99.90;;;;;;5082147;28;20645;-59
2023/09/26 12:47:43;;;;;;;2.53;2.33;;;25.50;99.90;;;;;;5064103;28;20676;-59
2023/09/26 12:50:13;;;;;;;5.73;2.40;;;25.40;99.90;;;;;;5082091;28;20220;-59
2023/09/26 12:52:42;;;;;;;2.83;2.40;;;25.40;99.90;;;;;;5067068;28;20234;-59
2023/09/26 12:55:16;;;;;;;3.47;2.10;;;25.40;99.90;;;;;;5070951;28;20181;-58